PWSweather.com
Personal Weather Stations
Station Observations

Acton, CA 93510

Lat: 34.47703, Lon: -118.17483

Elevation: 2900

Station Type: Davis Vantage Pro 2

http://www.actonastro.com/weather/current.php

Latest ConditionsUpdated 5:34:21 PM PDT Wednesday, Apr 23, 2014
Currently Today's Max Today's Min Today's Average
Temperature 70.1°F21.2°C 71.1°F21.7°C 38.5°F3.6°C 54.3°F12.4°C
Dew Point 13.2°F-10.4°C 24.4°F-4.2°C 11.2°F-11.6°C 18.3°F-7.6°C
Winds 8.0 mph ENE12.9 kmh ENE 16.0 mph NE25.7 kmh NE - 3.9 mph 6.3 kmh
Wind Gusts 12.0 mph19.3 kmh 18.0 mph29.0 kmh - -
Humidity 11% 48% 11% 27%
Pressure 29.78 in1008.5 mb 29.85 in1010.8 mb 29.78 in1008.5 mb -
Hour Temp Dew Point Humidity Winds Wind Gusts Pressure Precip Precip Rate Daily Precip Total
05:34 PM 70.1°F21.2°C 13.2°F-10.4°C 11% 8.0 mph ENE12.9 kmh ENE 12.0 mph19.3 kmh 29.78 in1008.5 mb 0.00 in0.0 mm 0.00 in/hr0.0 mm/hr 0.00 in0.0 mm
05:29 PM 69.9°F21.1°C 18.5°F-7.5°C 14% 6.0 mph E9.7 kmh E 10.0 mph16.1 kmh 29.78 in1008.5 mb 0.00 in0.0 mm 0.00 in/hr0.0 mm/hr 0.00 in0.0 mm
05:24 PM 69.6°F20.9°C 12.8°F-10.7°C 11% 6.0 mph ENE9.7 kmh ENE 9.0 mph14.5 kmh 29.78 in1008.5 mb 0.00 in0.0 mm 0.00 in/hr0.0 mm/hr 0.00 in0.0 mm
05:19 PM 69.8°F21.0°C 14.9°F-9.5°C 12% 1.0 mph E1.6 kmh E 9.0 mph14.5 kmh 29.78 in1008.5 mb 0.00 in0.0 mm 0.00 in/hr0.0 mm/hr 0.00 in0.0 mm
05:14 PM 69.8°F21.0°C 12.9°F-10.6°C 11% 4.0 mph ENE6.4 kmh ENE 9.0 mph14.5 kmh 29.78 in1008.5 mb 0.00 in0.0 mm 0.00 in/hr0.0 mm/hr 0.00 in0.0 mm
05:09 PM 69.8°F21.0°C 12.9°F-10.6°C 11% 5.0 mph ENE8.0 kmh ENE 9.0 mph14.5 kmh 29.78 in1008.5 mb 0.00 in0.0 mm 0.00 in/hr0.0 mm/hr 0.00 in0.0 mm
05:04 PM 69.9°F21.1°C 13.0°F-10.6°C 11% 6.0 mph NE9.7 kmh NE 9.0 mph14.5 kmh 29.78 in1008.5 mb 0.00 in0.0 mm 0.00 in/hr0.0 mm/hr 0.00 in0.0 mm
04:59 PM 69.9°F21.1°C 13.0°F-10.6°C 11% 3.0 mph NW4.8 kmh NW 9.0 mph14.5 kmh 29.78 in1008.5 mb 0.00 in0.0 mm 0.00 in/hr0.0 mm/hr 0.00 in0.0 mm
04:54 PM 70.4°F21.3°C 13.4°F-10.3°C 11% 7.0 mph NE11.3 kmh NE 9.0 mph14.5 kmh 29.78 in1008.5 mb 0.00 in0.0 mm 0.00 in/hr0.0 mm/hr 0.00 in0.0 mm
04:49 PM 70.3°F21.3°C 17.1°F-8.3°C 13% 3.0 mph S4.8 kmh S 12.0 mph19.3 kmh 29.78 in1008.5 mb 0.00 in0.0 mm 0.00 in/hr0.0 mm/hr 0.00 in0.0 mm
04:44 PM 70.1°F21.2°C 17.0°F-8.3°C 13% 4.0 mph E6.4 kmh E 12.0 mph19.3 kmh 29.78 in1008.5 mb 0.00 in0.0 mm 0.00 in/hr0.0 mm/hr 0.00 in0.0 mm
04:39 PM 70.1°F21.2°C 15.1°F-9.4°C 12% 4.0 mph E6.4 kmh E 12.0 mph19.3 kmh 29.78 in1008.5 mb 0.00 in0.0 mm 0.00 in/hr0.0 mm/hr 0.00 in0.0 mm
04:34 PM 70.3°F21.3°C 15.3°F-9.3°C 12% 6.0 mph NNE9.7 kmh NNE 12.0 mph19.3 kmh 29.78 in1008.5 mb 0.00 in0.0 mm 0.00 in/hr0.0 mm/hr 0.00 in0.0 mm
04:29 PM 70.9°F21.6°C 15.8°F-9.0°C 12% 10.0 mph ENE16.1 kmh ENE 10.0 mph16.1 kmh 29.78 in1008.5 mb 0.00 in0.0 mm 0.00 in/hr0.0 mm/hr 0.00 in0.0 mm
04:24 PM 71.1°F21.7°C 13.9°F-10.1°C 11% 4.0 mph NNW6.4 kmh NNW 7.0 mph11.3 kmh 29.78 in1008.5 mb 0.00 in0.0 mm 0.00 in/hr0.0 mm/hr 0.00 in0.0 mm
04:19 PM 70.9°F21.6°C 19.3°F-7.1°C 14% 2.0 mph SSE3.2 kmh SSE 7.0 mph11.3 kmh 29.78 in1008.5 mb 0.00 in0.0 mm 0.00 in/hr0.0 mm/hr 0.00 in0.0 mm
04:14 PM 70.6°F21.4°C 15.5°F-9.2°C 12% 4.0 mph SE6.4 kmh SE 7.0 mph11.3 kmh 29.78 in1008.5 mb 0.00 in0.0 mm 0.00 in/hr0.0 mm/hr 0.00 in0.0 mm
04:09 PM 69.9°F21.1°C 18.5°F-7.5°C 14% 3.0 mph ESE4.8 kmh ESE 7.0 mph11.3 kmh 29.78 in1008.5 mb 0.00 in0.0 mm 0.00 in/hr0.0 mm/hr 0.00 in0.0 mm
04:04 PM 69.6°F20.9°C 14.8°F-9.6°C 12% 4.0 mph NE6.4 kmh NE 10.0 mph16.1 kmh 29.78 in1008.5 mb 0.00 in0.0 mm 0.00 in/hr0.0 mm/hr 0.00 in0.0 mm
03:59 PM 69.8°F21.0°C 14.9°F-9.5°C 12% 1.0 mph W1.6 kmh W 10.0 mph16.1 kmh 29.78 in1008.5 mb 0.00 in0.0 mm 0.00 in/hr0.0 mm/hr 0.00 in0.0 mm
03:54 PM 69.9°F21.1°C 18.5°F-7.5°C 14% 3.0 mph ENE4.8 kmh ENE 11.0 mph17.7 kmh 29.78 in1008.5 mb 0.00 in0.0 mm 0.00 in/hr0.0 mm/hr 0.00 in0.0 mm
03:49 PM 69.3°F20.7°C 16.4°F-8.7°C 13% 1.0 mph E1.6 kmh E 11.0 mph17.7 kmh 29.78 in1008.5 mb 0.00 in0.0 mm 0.00 in/hr0.0 mm/hr 0.00 in0.0 mm
03:44 PM 68.9°F20.5°C 16.0°F-8.9°C 13% 7.0 mph E11.3 kmh E 11.0 mph17.7 kmh 29.78 in1008.5 mb 0.00 in0.0 mm 0.00 in/hr0.0 mm/hr 0.00 in0.0 mm
03:39 PM 69.1°F20.6°C 16.2°F-8.8°C 13% 3.0 mph NE4.8 kmh NE 11.0 mph17.7 kmh 29.78 in1008.5 mb 0.00 in0.0 mm 0.00 in/hr0.0 mm/hr 0.00 in0.0 mm
03:34 PM 69.6°F20.9°C 14.8°F-9.6°C 12% 4.0 mph ENE6.4 kmh ENE 7.0 mph11.3 kmh 29.78 in1008.5 mb 0.00 in0.0 mm 0.00 in/hr0.0 mm/hr 0.00 in0.0 mm
03:29 PM 69.3°F20.7°C 16.4°F-8.7°C 13% 3.0 mph NE4.8 kmh NE 12.0 mph19.3 kmh 29.78 in1008.5 mb 0.00 in0.0 mm 0.00 in/hr0.0 mm/hr 0.00 in0.0 mm
03:24 PM 69.8°F21.0°C 18.5°F-7.5°C 14% 2.0 mph E3.2 kmh E 12.0 mph19.3 kmh 29.79 in1008.8 mb 0.00 in0.0 mm 0.00 in/hr0.0 mm/hr 0.00 in0.0 mm
03:19 PM 69.3°F20.7°C 18.1°F-7.7°C 14% 4.0 mph S6.4 kmh S 12.0 mph19.3 kmh 29.79 in1008.8 mb 0.00 in0.0 mm 0.00 in/hr0.0 mm/hr 0.00 in0.0 mm
03:14 PM 68.9°F20.5°C 19.4°F-7.0°C 15% 7.0 mph ENE11.3 kmh ENE 12.0 mph19.3 kmh 29.79 in1008.8 mb 0.00 in0.0 mm 0.00 in/hr0.0 mm/hr 0.00 in0.0 mm
03:09 PM 68.6°F20.3°C 19.1°F-7.2°C 15% 3.0 mph E4.8 kmh E 14.0 mph22.5 kmh 29.79 in1008.8 mb 0.00 in0.0 mm 0.00 in/hr0.0 mm/hr 0.00 in0.0 mm
03:04 PM 67.8°F19.9°C 15.2°F-9.3°C 13% 9.0 mph ENE14.5 kmh ENE 14.0 mph22.5 kmh 29.79 in1008.8 mb 0.00 in0.0 mm 0.00 in/hr0.0 mm/hr 0.00 in0.0 mm
02:59 PM 67.9°F19.9°C 15.3°F-9.3°C 13% 9.0 mph E14.5 kmh E 14.0 mph22.5 kmh 29.79 in1008.8 mb 0.00 in0.0 mm 0.00 in/hr0.0 mm/hr 0.00 in0.0 mm
02:54 PM 67.9°F19.9°C 17.0°F-8.3°C 14% 5.0 mph E8.0 kmh E 14.0 mph22.5 kmh 29.79 in1008.8 mb 0.00 in0.0 mm 0.00 in/hr0.0 mm/hr 0.00 in0.0 mm
02:49 PM 67.9°F19.9°C 15.3°F-9.3°C 13% 4.0 mph NNE6.4 kmh NNE 17.0 mph27.4 kmh 29.79 in1008.8 mb 0.00 in0.0 mm 0.00 in/hr0.0 mm/hr 0.00 in0.0 mm
02:44 PM 68.3°F20.2°C 15.6°F-9.1°C 13% 7.0 mph NE11.3 kmh NE 17.0 mph27.4 kmh 29.79 in1008.8 mb 0.00 in0.0 mm 0.00 in/hr0.0 mm/hr 0.00 in0.0 mm
02:39 PM 67.6°F19.8°C 21.2°F-6.0°C 17% 3.0 mph NE4.8 kmh NE 17.0 mph27.4 kmh 29.81 in1009.5 mb 0.00 in0.0 mm 0.00 in/hr0.0 mm/hr 0.00 in0.0 mm
02:34 PM 67.8°F19.9°C 15.2°F-9.3°C 13% 6.0 mph NE9.7 kmh NE 17.0 mph27.4 kmh 29.81 in1009.5 mb 0.00 in0.0 mm 0.00 in/hr0.0 mm/hr 0.00 in0.0 mm
02:29 PM 67.4°F19.7°C 16.6°F-8.6°C 14% 14.0 mph NE22.5 kmh NE 17.0 mph27.4 kmh 29.81 in1009.5 mb 0.00 in0.0 mm 0.00 in/hr0.0 mm/hr 0.00 in0.0 mm
02:24 PM 67.6°F19.8°C 15.0°F-9.4°C 13% 7.0 mph E11.3 kmh E 17.0 mph27.4 kmh 29.81 in1009.5 mb 0.00 in0.0 mm 0.00 in/hr0.0 mm/hr 0.00 in0.0 mm
02:19 PM 67.3°F19.6°C 16.5°F-8.6°C 14% 4.0 mph ESE6.4 kmh ESE 17.0 mph27.4 kmh 29.81 in1009.5 mb 0.00 in0.0 mm 0.00 in/hr0.0 mm/hr 0.00 in0.0 mm
02:14 PM 66.9°F19.4°C 19.3°F-7.1°C 16% 4.0 mph ESE6.4 kmh ESE 17.0 mph27.4 kmh 29.81 in1009.5 mb 0.00 in0.0 mm 0.00 in/hr0.0 mm/hr 0.00 in0.0 mm
02:09 PM 66.4°F19.1°C 15.8°F-9.0°C 14% 11.0 mph NE17.7 kmh NE 16.0 mph25.7 kmh 29.81 in1009.5 mb 0.00 in0.0 mm 0.00 in/hr0.0 mm/hr 0.00 in0.0 mm
02:04 PM 66.0°F18.9°C 15.5°F-9.2°C 14% 11.0 mph NNE17.7 kmh NNE 17.0 mph27.4 kmh 29.81 in1009.5 mb 0.00 in0.0 mm 0.00 in/hr0.0 mm/hr 0.00 in0.0 mm
01:59 PM 66.3°F19.1°C 15.7°F-9.1°C 14% 16.0 mph NE25.7 kmh NE 17.0 mph27.4 kmh 29.81 in1009.5 mb 0.00 in0.0 mm 0.00 in/hr0.0 mm/hr 0.00 in0.0 mm
01:54 PM 66.1°F18.9°C 15.5°F-9.2°C 14% 9.0 mph NNE14.5 kmh NNE 17.0 mph27.4 kmh 29.81 in1009.5 mb 0.00 in0.0 mm 0.00 in/hr0.0 mm/hr 0.00 in0.0 mm
01:49 PM 66.1°F18.9°C 15.5°F-9.2°C 14% 3.0 mph NNE4.8 kmh NNE 17.0 mph27.4 kmh 29.81 in1009.5 mb 0.00 in0.0 mm 0.00 in/hr0.0 mm/hr 0.00 in0.0 mm
01:44 PM 66.0°F18.9°C 15.5°F-9.2°C 14% 13.0 mph NE20.9 kmh NE 16.0 mph25.7 kmh 29.81 in1009.5 mb 0.00 in0.0 mm 0.00 in/hr0.0 mm/hr 0.00 in0.0 mm
01:39 PM 65.6°F18.7°C 16.7°F-8.5°C 15% 6.0 mph E9.7 kmh E 16.0 mph25.7 kmh 29.82 in1009.8 mb 0.00 in0.0 mm 0.00 in/hr0.0 mm/hr 0.00 in0.0 mm
01:34 PM 66.1°F18.9°C 15.5°F-9.2°C 14% 10.0 mph E16.1 kmh E 16.0 mph25.7 kmh 29.82 in1009.8 mb 0.00 in0.0 mm 0.00 in/hr0.0 mm/hr 0.00 in0.0 mm
01:29 PM 65.5°F18.6°C 16.6°F-8.6°C 15% 9.0 mph ENE14.5 kmh ENE 14.0 mph22.5 kmh 29.82 in1009.8 mb 0.00 in0.0 mm 0.00 in/hr0.0 mm/hr 0.00 in0.0 mm
01:24 PM 65.2°F18.4°C 14.8°F-9.6°C 14% 6.0 mph NE9.7 kmh NE 14.0 mph22.5 kmh 29.82 in1009.8 mb 0.00 in0.0 mm 0.00 in/hr0.0 mm/hr 0.00 in0.0 mm
01:19 PM 64.8°F18.2°C 16.1°F-8.8°C 15% 6.0 mph NE9.7 kmh NE 14.0 mph22.5 kmh 29.82 in1009.8 mb 0.00 in0.0 mm 0.00 in/hr0.0 mm/hr 0.00 in0.0 mm
01:14 PM 65.2°F18.4°C 14.8°F-9.6°C 14% 5.0 mph NE8.0 kmh NE 13.0 mph20.9 kmh 29.82 in1009.8 mb 0.00 in0.0 mm 0.00 in/hr0.0 mm/hr 0.00 in0.0 mm
01:09 PM 65.2°F18.4°C 17.9°F-7.8°C 16% 4.0 mph ENE6.4 kmh ENE 16.0 mph25.7 kmh 29.82 in1009.8 mb 0.00 in0.0 mm 0.00 in/hr0.0 mm/hr 0.00 in0.0 mm
01:04 PM 64.5°F18.1°C 21.3°F-5.9°C 19% 3.0 mph ENE4.8 kmh ENE 16.0 mph25.7 kmh 29.82 in1009.8 mb 0.00 in0.0 mm 0.00 in/hr0.0 mm/hr 0.00 in0.0 mm
12:59 PM 64.5°F18.1°C 14.3°F-9.8°C 14% 5.0 mph NE8.0 kmh NE 16.0 mph25.7 kmh 29.82 in1009.8 mb 0.00 in0.0 mm 0.00 in/hr0.0 mm/hr 0.00 in0.0 mm
12:54 PM 64.3°F17.9°C 15.7°F-9.1°C 15% 13.0 mph NE20.9 kmh NE 16.0 mph25.7 kmh 29.82 in1009.8 mb 0.00 in0.0 mm 0.00 in/hr0.0 mm/hr 0.00 in0.0 mm
12:49 PM 64.3°F17.9°C 15.7°F-9.1°C 15% 9.0 mph NE14.5 kmh NE 15.0 mph24.1 kmh 29.82 in1009.8 mb 0.00 in0.0 mm 0.00 in/hr0.0 mm/hr 0.00 in0.0 mm
12:44 PM 63.9°F17.7°C 15.4°F-9.2°C 15% 3.0 mph E4.8 kmh E 17.0 mph27.4 kmh 29.82 in1009.8 mb 0.00 in0.0 mm 0.00 in/hr0.0 mm/hr 0.00 in0.0 mm
12:39 PM 63.7°F17.6°C 16.7°F-8.5°C 16% 10.0 mph NE16.1 kmh NE 17.0 mph27.4 kmh 29.82 in1009.8 mb 0.00 in0.0 mm 0.00 in/hr0.0 mm/hr 0.00 in0.0 mm
12:34 PM 63.4°F17.4°C 16.4°F-8.7°C 16% 3.0 mph ENE4.8 kmh ENE 17.0 mph27.4 kmh 29.82 in1009.8 mb 0.00 in0.0 mm 0.00 in/hr0.0 mm/hr 0.00 in0.0 mm
12:29 PM 63.5°F17.5°C 15.0°F-9.4°C 15% 13.0 mph ENE20.9 kmh ENE 17.0 mph27.4 kmh 29.82 in1009.8 mb 0.00 in0.0 mm 0.00 in/hr0.0 mm/hr 0.00 in0.0 mm
12:24 PM 63.2°F17.3°C 13.2°F-10.4°C 14% 7.0 mph NNE11.3 kmh NNE 15.0 mph24.1 kmh 29.83 in1010.2 mb 0.00 in0.0 mm 0.00 in/hr0.0 mm/hr 0.00 in0.0 mm
12:19 PM 62.9°F17.2°C 13.0°F-10.6°C 14% 3.0 mph NE4.8 kmh NE 16.0 mph25.7 kmh 29.83 in1010.2 mb 0.00 in0.0 mm 0.00 in/hr0.0 mm/hr 0.00 in0.0 mm
12:14 PM 63.2°F17.3°C 11.6°F-11.3°C 13% 5.0 mph NE8.0 kmh NE 16.0 mph25.7 kmh 29.83 in1010.2 mb 0.00 in0.0 mm 0.00 in/hr0.0 mm/hr 0.00 in0.0 mm
12:09 PM 63.5°F17.5°C 13.5°F-10.3°C 14% 12.0 mph NE19.3 kmh NE 16.0 mph25.7 kmh 29.84 in1010.5 mb 0.00 in0.0 mm 0.00 in/hr0.0 mm/hr 0.00 in0.0 mm
12:04 PM 63.1°F17.3°C 14.7°F-9.6°C 15% 8.0 mph ENE12.9 kmh ENE 16.0 mph25.7 kmh 29.84 in1010.5 mb 0.00 in0.0 mm 0.00 in/hr0.0 mm/hr 0.00 in0.0 mm
11:59 AM 62.1°F16.7°C 15.4°F-9.2°C 16% 5.0 mph NE8.0 kmh NE 17.0 mph27.4 kmh 29.84 in1010.5 mb 0.00 in0.0 mm 0.00 in/hr0.0 mm/hr 0.00 in0.0 mm
11:54 AM 61.5°F16.4°C 14.9°F-9.5°C 16% 6.0 mph NNE9.7 kmh NNE 17.0 mph27.4 kmh 29.84 in1010.5 mb 0.00 in0.0 mm 0.00 in/hr0.0 mm/hr 0.00 in0.0 mm
11:49 AM 62.0°F16.7°C 13.8°F-10.1°C 15% 11.0 mph E17.7 kmh E 17.0 mph27.4 kmh 29.84 in1010.5 mb 0.00 in0.0 mm 0.00 in/hr0.0 mm/hr 0.00 in0.0 mm
11:44 AM 61.8°F16.6°C 15.1°F-9.4°C 16% 7.0 mph NE11.3 kmh NE 17.0 mph27.4 kmh 29.84 in1010.5 mb 0.00 in0.0 mm 0.00 in/hr0.0 mm/hr 0.00 in0.0 mm
11:39 AM 62.0°F16.7°C 12.3°F-10.9°C 14% 13.0 mph NE20.9 kmh NE 17.0 mph27.4 kmh 29.84 in1010.5 mb 0.00 in0.0 mm 0.00 in/hr0.0 mm/hr 0.00 in0.0 mm
11:34 AM 61.8°F16.6°C 15.1°F-9.4°C 16% 7.0 mph E11.3 kmh E 17.0 mph27.4 kmh 29.84 in1010.5 mb 0.00 in0.0 mm 0.00 in/hr0.0 mm/hr 0.00 in0.0 mm
11:29 AM 61.5°F16.4°C 14.9°F-9.5°C 16% 9.0 mph NE14.5 kmh NE 14.0 mph22.5 kmh 29.84 in1010.5 mb 0.00 in0.0 mm 0.00 in/hr0.0 mm/hr 0.00 in0.0 mm
11:24 AM 61.0°F16.1°C 14.5°F-9.7°C 16% 4.0 mph ENE6.4 kmh ENE 18.0 mph29.0 kmh 29.85 in1010.8 mb 0.00 in0.0 mm 0.00 in/hr0.0 mm/hr 0.00 in0.0 mm
11:19 AM 61.0°F16.1°C 14.5°F-9.7°C 16% 5.0 mph E8.0 kmh E 18.0 mph29.0 kmh 29.85 in1010.8 mb 0.00 in0.0 mm 0.00 in/hr0.0 mm/hr 0.00 in0.0 mm
11:14 AM 61.2°F16.2°C 13.2°F-10.4°C 15% 7.0 mph E11.3 kmh E 18.0 mph29.0 kmh 29.85 in1010.8 mb 0.00 in0.0 mm 0.00 in/hr0.0 mm/hr 0.00 in0.0 mm
11:09 AM 61.0°F16.1°C 14.5°F-9.7°C 16% 7.0 mph NNE11.3 kmh NNE 18.0 mph29.0 kmh 29.84 in1010.5 mb 0.00 in0.0 mm 0.00 in/hr0.0 mm/hr 0.00 in0.0 mm
11:04 AM 60.7°F15.9°C 11.2°F-11.6°C 14% 10.0 mph NE16.1 kmh NE 14.0 mph22.5 kmh 29.84 in1010.5 mb 0.00 in0.0 mm 0.00 in/hr0.0 mm/hr 0.00 in0.0 mm
10:59 AM 60.7°F15.9°C 14.3°F-9.8°C 16% 5.0 mph NE8.0 kmh NE 12.0 mph19.3 kmh 29.84 in1010.5 mb 0.00 in0.0 mm 0.00 in/hr0.0 mm/hr 0.00 in0.0 mm
10:54 AM 60.2°F15.7°C 15.2°F-9.3°C 17% 5.0 mph E8.0 kmh E 13.0 mph20.9 kmh 29.84 in1010.5 mb 0.00 in0.0 mm 0.00 in/hr0.0 mm/hr 0.00 in0.0 mm
10:49 AM 59.8°F15.4°C 16.2°F-8.8°C 18% 11.0 mph ENE17.7 kmh ENE 13.0 mph20.9 kmh 29.84 in1010.5 mb 0.00 in0.0 mm 0.00 in/hr0.0 mm/hr 0.00 in0.0 mm
10:44 AM 59.9°F15.5°C 16.3°F-8.7°C 18% 7.0 mph E11.3 kmh E 14.0 mph22.5 kmh 29.84 in1010.5 mb 0.00 in0.0 mm 0.00 in/hr0.0 mm/hr 0.00 in0.0 mm
10:39 AM 59.8°F15.4°C 16.2°F-8.8°C 18% 10.0 mph E16.1 kmh E 14.0 mph22.5 kmh 29.83 in1010.2 mb 0.00 in0.0 mm 0.00 in/hr0.0 mm/hr 0.00 in0.0 mm
10:34 AM 59.8°F15.4°C 14.9°F-9.5°C 17% 10.0 mph NE16.1 kmh NE 14.0 mph22.5 kmh 29.83 in1010.2 mb 0.00 in0.0 mm 0.00 in/hr0.0 mm/hr 0.00 in0.0 mm
10:29 AM 60.1°F15.6°C 15.2°F-9.3°C 17% 6.0 mph NNE9.7 kmh NNE 14.0 mph22.5 kmh 29.83 in1010.2 mb 0.00 in0.0 mm 0.00 in/hr0.0 mm/hr 0.00 in0.0 mm
10:24 AM 59.8°F15.4°C 17.5°F-8.1°C 19% 9.0 mph ENE14.5 kmh ENE 13.0 mph20.9 kmh 29.83 in1010.2 mb 0.00 in0.0 mm 0.00 in/hr0.0 mm/hr 0.00 in0.0 mm
10:19 AM 59.2°F15.1°C 15.7°F-9.1°C 18% 6.0 mph ESE9.7 kmh ESE 12.0 mph19.3 kmh 29.83 in1010.2 mb 0.00 in0.0 mm 0.00 in/hr0.0 mm/hr 0.00 in0.0 mm
10:14 AM 59.2°F15.1°C 17.0°F-8.3°C 19% 11.0 mph ENE17.7 kmh ENE 11.0 mph17.7 kmh 29.83 in1010.2 mb 0.00 in0.0 mm 0.00 in/hr0.0 mm/hr 0.00 in0.0 mm
10:09 AM 59.5°F15.3°C 18.4°F-7.6°C 20% 6.0 mph NE9.7 kmh NE 10.0 mph16.1 kmh 29.83 in1010.2 mb 0.00 in0.0 mm 0.00 in/hr0.0 mm/hr 0.00 in0.0 mm
10:04 AM 59.3°F15.2°C 23.5°F-4.7°C 25% 3.0 mph E4.8 kmh E 10.0 mph16.1 kmh 29.83 in1010.2 mb 0.00 in0.0 mm 0.00 in/hr0.0 mm/hr 0.00 in0.0 mm
09:59 AM 58.6°F14.8°C 20.9°F-6.2°C 23% 5.0 mph NE8.0 kmh NE 10.0 mph16.1 kmh 29.83 in1010.2 mb 0.00 in0.0 mm 0.00 in/hr0.0 mm/hr 0.00 in0.0 mm
09:54 AM 58.0°F14.4°C 24.2°F-4.3°C 27% 3.0 mph S4.8 kmh S 9.0 mph14.5 kmh 29.83 in1010.2 mb 0.00 in0.0 mm 0.00 in/hr0.0 mm/hr 0.00 in0.0 mm
09:49 AM 57.6°F14.2°C 22.0°F-5.6°C 25% 2.0 mph ESE3.2 kmh ESE 9.0 mph14.5 kmh 29.83 in1010.2 mb 0.00 in0.0 mm 0.00 in/hr0.0 mm/hr 0.00 in0.0 mm
09:44 AM 57.2°F14.0°C 22.6°F-5.2°C 26% 8.0 mph NE12.9 kmh NE 8.0 mph12.9 kmh 29.83 in1010.2 mb 0.00 in0.0 mm 0.00 in/hr0.0 mm/hr 0.00 in0.0 mm
09:39 AM 56.6°F13.7°C 22.1°F-5.5°C 26% 2.0 mph E3.2 kmh E 11.0 mph17.7 kmh 29.83 in1010.2 mb 0.00 in0.0 mm 0.00 in/hr0.0 mm/hr 0.00 in0.0 mm
09:34 AM 56.0°F13.3°C 21.6°F-5.8°C 26% 6.0 mph E9.7 kmh E 11.0 mph17.7 kmh 29.83 in1010.2 mb 0.00 in0.0 mm 0.00 in/hr0.0 mm/hr 0.00 in0.0 mm
09:29 AM 55.3°F12.9°C 21.0°F-6.1°C 26% 3.0 mph E4.8 kmh E 14.0 mph22.5 kmh 29.83 in1010.2 mb 0.00 in0.0 mm 0.00 in/hr0.0 mm/hr 0.00 in0.0 mm
09:24 AM 55.0°F12.8°C 20.8°F-6.2°C 26% 8.0 mph NE12.9 kmh NE 14.0 mph22.5 kmh 29.84 in1010.5 mb 0.00 in0.0 mm 0.00 in/hr0.0 mm/hr 0.00 in0.0 mm
09:19 AM 54.8°F12.7°C 19.7°F-6.8°C 25% 10.0 mph ENE16.1 kmh ENE 15.0 mph24.1 kmh 29.84 in1010.5 mb 0.00 in0.0 mm 0.00 in/hr0.0 mm/hr 0.00 in0.0 mm
09:14 AM 55.0°F12.8°C 20.8°F-6.2°C 26% 10.0 mph ENE16.1 kmh ENE 15.0 mph24.1 kmh 29.84 in1010.5 mb 0.00 in0.0 mm 0.00 in/hr0.0 mm/hr 0.00 in0.0 mm
09:09 AM 55.1°F12.8°C 20.8°F-6.2°C 26% 12.0 mph E19.3 kmh E 15.0 mph24.1 kmh 29.83 in1010.2 mb 0.00 in0.0 mm 0.00 in/hr0.0 mm/hr 0.00 in0.0 mm
08:59 AM 55.9°F13.3°C 23.3°F-4.8°C 28% 6.0 mph E9.7 kmh E 12.0 mph19.3 kmh 29.83 in1010.2 mb 0.00 in0.0 mm 0.00 in/hr0.0 mm/hr 0.00 in0.0 mm
08:54 AM 56.0°F13.3°C 20.7°F-6.3°C 25% 5.0 mph E8.0 kmh E 12.0 mph19.3 kmh 29.82 in1009.8 mb 0.00 in0.0 mm 0.00 in/hr0.0 mm/hr 0.00 in0.0 mm
08:49 AM 56.0°F13.3°C 21.6°F-5.8°C 26% 6.0 mph SE9.7 kmh SE 11.0 mph17.7 kmh 29.82 in1009.8 mb 0.00 in0.0 mm 0.00 in/hr0.0 mm/hr 0.00 in0.0 mm
08:44 AM 55.4°F13.0°C 22.0°F-5.6°C 27% 3.0 mph ESE4.8 kmh ESE 11.0 mph17.7 kmh 29.82 in1009.8 mb 0.00 in0.0 mm 0.00 in/hr0.0 mm/hr 0.00 in0.0 mm
08:39 AM 54.8°F12.7°C 22.3°F-5.4°C 28% 6.0 mph ESE9.7 kmh ESE 11.0 mph17.7 kmh 29.83 in1010.2 mb 0.00 in0.0 mm 0.00 in/hr0.0 mm/hr 0.00 in0.0 mm
08:34 AM 54.2°F12.3°C 21.0°F-6.1°C 27% 6.0 mph SE9.7 kmh SE 9.0 mph14.5 kmh 29.83 in1010.2 mb 0.00 in0.0 mm 0.00 in/hr0.0 mm/hr 0.00 in0.0 mm
08:29 AM 53.3°F11.8°C 21.0°F-6.1°C 28% 3.0 mph E4.8 kmh E 9.0 mph14.5 kmh 29.83 in1010.2 mb 0.00 in0.0 mm 0.00 in/hr0.0 mm/hr 0.00 in0.0 mm
08:24 AM 52.5°F11.4°C 22.8°F-5.1°C 31% 6.0 mph SSE9.7 kmh SSE 11.0 mph17.7 kmh 29.84 in1010.5 mb 0.00 in0.0 mm 0.00 in/hr0.0 mm/hr 0.00 in0.0 mm
08:19 AM 51.6°F10.9°C 23.4°F-4.8°C 33% 6.0 mph E9.7 kmh E 11.0 mph17.7 kmh 29.84 in1010.5 mb 0.00 in0.0 mm 0.00 in/hr0.0 mm/hr 0.00 in0.0 mm
08:14 AM 51.0°F10.6°C 24.3°F-4.3°C 35% 5.0 mph E8.0 kmh E 11.0 mph17.7 kmh 29.84 in1010.5 mb 0.00 in0.0 mm 0.00 in/hr0.0 mm/hr 0.00 in0.0 mm
08:09 AM 50.4°F10.2°C 23.1°F-4.9°C 34% 5.0 mph ESE8.0 kmh ESE 11.0 mph17.7 kmh 29.83 in1010.2 mb 0.00 in0.0 mm 0.00 in/hr0.0 mm/hr 0.00 in0.0 mm
08:04 AM 49.6°F9.8°C 23.8°F-4.6°C 36% 1.0 mph SE1.6 kmh SE 7.0 mph11.3 kmh 29.83 in1010.2 mb 0.00 in0.0 mm 0.00 in/hr0.0 mm/hr 0.00 in0.0 mm
07:59 AM 48.9°F9.4°C 24.4°F-4.2°C 38% 3.0 mph E4.8 kmh E 7.0 mph11.3 kmh 29.83 in1010.2 mb 0.00 in0.0 mm 0.00 in/hr0.0 mm/hr 0.00 in0.0 mm
07:54 AM 48.2°F9.0°C 23.8°F-4.6°C 38% 2.0 mph E3.2 kmh E 5.0 mph8.0 kmh 29.85 in1010.8 mb 0.00 in0.0 mm 0.00 in/hr0.0 mm/hr 0.00 in0.0 mm
07:49 AM 47.4°F8.6°C 24.3°F-4.3°C 40% 3.0 mph E4.8 kmh E 5.0 mph8.0 kmh 29.85 in1010.8 mb 0.00 in0.0 mm 0.00 in/hr0.0 mm/hr 0.00 in0.0 mm
07:44 AM 46.5°F8.1°C 22.3°F-5.4°C 38% 1.0 mph E1.6 kmh E 5.0 mph8.0 kmh 29.85 in1010.8 mb 0.00 in0.0 mm 0.00 in/hr0.0 mm/hr 0.00 in0.0 mm
07:39 AM 45.7°F7.6°C 21.6°F-5.8°C 38% 1.0 mph E1.6 kmh E 5.0 mph8.0 kmh 29.84 in1010.5 mb 0.00 in0.0 mm 0.00 in/hr0.0 mm/hr 0.00 in0.0 mm
07:34 AM 45.1°F7.3°C 21.0°F-6.1°C 38% Calm Calm 1.0 mph1.6 kmh 29.84 in1010.5 mb 0.00 in0.0 mm 0.00 in/hr0.0 mm/hr 0.00 in0.0 mm
07:29 AM 44.6°F7.0°C 21.2°F-6.0°C 39% Calm Calm 3.0 mph4.8 kmh 29.84 in1010.5 mb 0.00 in0.0 mm 0.00 in/hr0.0 mm/hr 0.00 in0.0 mm
07:24 AM 43.8°F6.6°C 21.1°F-6.1°C 40% 2.0 mph NE3.2 kmh NE 3.0 mph4.8 kmh 29.85 in1010.8 mb 0.00 in0.0 mm 0.00 in/hr0.0 mm/hr 0.00 in0.0 mm
07:19 AM 42.3°F5.7°C 21.4°F-5.9°C 43% Calm Calm 2.0 mph3.2 kmh 29.85 in1010.8 mb 0.00 in0.0 mm 0.00 in/hr0.0 mm/hr 0.00 in0.0 mm
07:14 AM 41.8°F5.4°C 21.5°F-5.8°C 44% Calm Calm -- 29.85 in1010.8 mb 0.00 in0.0 mm 0.00 in/hr0.0 mm/hr 0.00 in0.0 mm
07:09 AM 41.5°F5.3°C 21.8°F-5.7°C 45% Calm Calm -- 29.84 in1010.5 mb 0.00 in0.0 mm 0.00 in/hr0.0 mm/hr 0.00 in0.0 mm
07:04 AM 41.2°F5.1°C 21.0°F-6.1°C 44% Calm Calm 4.0 mph6.4 kmh 29.84 in1010.5 mb 0.00 in0.0 mm 0.00 in/hr0.0 mm/hr 0.00 in0.0 mm
06:59 AM 40.5°F4.7°C 20.8°F-6.2°C 45% 1.0 mph NE1.6 kmh NE 4.0 mph6.4 kmh 29.84 in1010.5 mb 0.00 in0.0 mm 0.00 in/hr0.0 mm/hr 0.00 in0.0 mm
06:54 AM 39.8°F4.3°C 20.2°F-6.6°C 45% 2.0 mph NE3.2 kmh NE 4.0 mph6.4 kmh 29.83 in1010.2 mb 0.00 in0.0 mm 0.00 in/hr0.0 mm/hr 0.00 in0.0 mm
06:49 AM 38.9°F3.8°C 20.4°F-6.4°C 47% 2.0 mph NE3.2 kmh NE 2.0 mph3.2 kmh 29.83 in1010.2 mb 0.00 in0.0 mm 0.00 in/hr0.0 mm/hr 0.00 in0.0 mm
06:44 AM 38.8°F3.8°C 20.8°F-6.2°C 48% Calm Calm 2.0 mph3.2 kmh 29.83 in1010.2 mb 0.00 in0.0 mm 0.00 in/hr0.0 mm/hr 0.00 in0.0 mm
06:39 AM 38.5°F3.6°C 20.0°F-6.7°C 47% Calm Calm 2.0 mph3.2 kmh 29.82 in1009.8 mb 0.00 in0.0 mm 0.00 in/hr0.0 mm/hr 0.00 in0.0 mm
06:34 AM 38.6°F3.7°C 20.1°F-6.6°C 47% 1.0 mph NE1.6 kmh NE 1.0 mph1.6 kmh 29.82 in1009.8 mb 0.00 in0.0 mm 0.00 in/hr0.0 mm/hr 0.00 in0.0 mm
06:29 AM 38.9°F3.8°C 19.9°F-6.7°C 46% Calm Calm -- 29.82 in1009.8 mb 0.00 in0.0 mm 0.00 in/hr0.0 mm/hr 0.00 in0.0 mm
06:24 AM 39.3°F4.1°C 19.8°F-6.8°C 45% 1.0 mph NE1.6 kmh NE 2.0 mph3.2 kmh 29.82 in1009.8 mb 0.00 in0.0 mm 0.00 in/hr0.0 mm/hr 0.00 in0.0 mm
06:19 AM 39.9°F4.4°C 20.3°F-6.5°C 45% 1.0 mph NE1.6 kmh NE 2.0 mph3.2 kmh 29.82 in1009.8 mb 0.00 in0.0 mm 0.00 in/hr0.0 mm/hr 0.00 in0.0 mm
06:14 AM 40.2°F4.6°C 21.1°F-6.1°C 46% 1.0 mph NE1.6 kmh NE 2.0 mph3.2 kmh 29.82 in1009.8 mb 0.00 in0.0 mm 0.00 in/hr0.0 mm/hr 0.00 in0.0 mm
06:09 AM 40.3°F4.6°C 20.7°F-6.3°C 45% Calm Calm -- 29.80 in1009.1 mb 0.00 in0.0 mm 0.00 in/hr0.0 mm/hr 0.00 in0.0 mm
06:04 AM 40.1°F4.5°C 20.0°F-6.7°C 44% 2.0 mph NE3.2 kmh NE 6.0 mph9.7 kmh 29.80 in1009.1 mb 0.00 in0.0 mm 0.00 in/hr0.0 mm/hr 0.00 in0.0 mm
05:59 AM 39.5°F4.2°C 19.4°F-7.0°C 44% 4.0 mph NE6.4 kmh NE 6.0 mph9.7 kmh 29.80 in1009.1 mb 0.00 in0.0 mm 0.00 in/hr0.0 mm/hr 0.00 in0.0 mm
05:54 AM 38.8°F3.8°C 19.3°F-7.1°C 45% 3.0 mph NE4.8 kmh NE 4.0 mph6.4 kmh 29.80 in1009.1 mb 0.00 in0.0 mm 0.00 in/hr0.0 mm/hr 0.00 in0.0 mm
05:49 AM 38.8°F3.8°C 19.8°F-6.8°C 46% 2.0 mph E3.2 kmh E 4.0 mph6.4 kmh 29.80 in1009.1 mb 0.00 in0.0 mm 0.00 in/hr0.0 mm/hr 0.00 in0.0 mm
05:44 AM 38.8°F3.8°C 19.8°F-6.8°C 46% Calm Calm 4.0 mph6.4 kmh 29.80 in1009.1 mb 0.00 in0.0 mm 0.00 in/hr0.0 mm/hr 0.00 in0.0 mm
05:39 AM 38.8°F3.8°C 19.8°F-6.8°C 46% 1.0 mph E1.6 kmh E 3.0 mph4.8 kmh 29.80 in1009.1 mb 0.00 in0.0 mm 0.00 in/hr0.0 mm/hr 0.00 in0.0 mm
05:34 AM 38.9°F3.8°C 19.9°F-6.7°C 46% 1.0 mph E1.6 kmh E 3.0 mph4.8 kmh 29.80 in1009.1 mb 0.00 in0.0 mm 0.00 in/hr0.0 mm/hr 0.00 in0.0 mm
05:29 AM 38.9°F3.8°C 19.4°F-7.0°C 45% Calm Calm 2.0 mph3.2 kmh 29.80 in1009.1 mb 0.00 in0.0 mm 0.00 in/hr0.0 mm/hr 0.00 in0.0 mm
05:24 AM 39.2°F4.0°C 19.7°F-6.8°C 45% Calm Calm 1.0 mph1.6 kmh 29.80 in1009.1 mb 0.00 in0.0 mm 0.00 in/hr0.0 mm/hr 0.00 in0.0 mm
05:19 AM 39.5°F4.2°C 19.4°F-7.0°C 44% Calm Calm 1.0 mph1.6 kmh 29.80 in1009.1 mb 0.00 in0.0 mm 0.00 in/hr0.0 mm/hr 0.00 in0.0 mm
05:14 AM 39.5°F4.2°C 19.4°F-7.0°C 44% Calm Calm 4.0 mph6.4 kmh 29.80 in1009.1 mb 0.00 in0.0 mm 0.00 in/hr0.0 mm/hr 0.00 in0.0 mm
05:09 AM 39.6°F4.2°C 19.5°F-6.9°C 44% 1.0 mph E1.6 kmh E 4.0 mph6.4 kmh 29.78 in1008.5 mb 0.00 in0.0 mm 0.00 in/hr0.0 mm/hr 0.00 in0.0 mm
05:04 AM 39.6°F4.2°C 19.5°F-6.9°C 44% Calm Calm 2.0 mph3.2 kmh 29.78 in1008.5 mb 0.00 in0.0 mm 0.00 in/hr0.0 mm/hr 0.00 in0.0 mm
04:59 AM 39.8°F4.3°C 19.7°F-6.8°C 44% 1.0 mph N1.6 kmh N 2.0 mph3.2 kmh 29.78 in1008.5 mb 0.00 in0.0 mm 0.00 in/hr0.0 mm/hr 0.00 in0.0 mm
04:54 AM 39.8°F4.3°C 19.7°F-6.8°C 44% Calm Calm -- 29.78 in1008.5 mb 0.00 in0.0 mm 0.00 in/hr0.0 mm/hr 0.00 in0.0 mm
04:49 AM 39.8°F4.3°C 19.1°F-7.2°C 43% 1.0 mph N1.6 kmh N 2.0 mph3.2 kmh 29.78 in1008.5 mb 0.00 in0.0 mm 0.00 in/hr0.0 mm/hr 0.00 in0.0 mm
04:41 AM 40.1°F4.5°C 19.4°F-7.0°C 43% 2.0 mph N3.2 kmh N 3.0 mph4.8 kmh 29.79 in1008.8 mb 0.00 in0.0 mm 0.00 in/hr0.0 mm/hr 0.00 in0.0 mm
04:36 AM 40.3°F4.6°C 19.6°F-6.9°C 43% 1.0 mph NE1.6 kmh NE 3.0 mph4.8 kmh 29.79 in1008.8 mb 0.00 in0.0 mm 0.00 in/hr0.0 mm/hr 0.00 in0.0 mm
04:31 AM 40.8°F4.9°C 19.5°F-6.9°C 42% Calm Calm 4.0 mph6.4 kmh 29.79 in1008.8 mb 0.00 in0.0 mm 0.00 in/hr0.0 mm/hr 0.00 in0.0 mm
04:26 AM 40.8°F4.9°C 18.9°F-7.3°C 41% Calm Calm 4.0 mph6.4 kmh 29.78 in1008.5 mb 0.00 in0.0 mm 0.00 in/hr0.0 mm/hr 0.00 in0.0 mm
04:21 AM 40.9°F4.9°C 19.0°F-7.2°C 41% 3.0 mph NW4.8 kmh NW 4.0 mph6.4 kmh 29.78 in1008.5 mb 0.00 in0.0 mm 0.00 in/hr0.0 mm/hr 0.00 in0.0 mm
04:16 AM 41.5°F5.3°C 19.0°F-7.2°C 40% 3.0 mph NE4.8 kmh NE 4.0 mph6.4 kmh 29.78 in1008.5 mb 0.00 in0.0 mm 0.00 in/hr0.0 mm/hr 0.00 in0.0 mm
04:11 AM 41.8°F5.4°C 19.8°F-6.8°C 41% Calm Calm -- 29.79 in1008.8 mb 0.00 in0.0 mm 0.00 in/hr0.0 mm/hr 0.00 in0.0 mm
04:06 AM 41.5°F5.3°C 19.6°F-6.9°C 41% 1.0 mph NE1.6 kmh NE 6.0 mph9.7 kmh 29.79 in1008.8 mb 0.00 in0.0 mm 0.00 in/hr0.0 mm/hr 0.00 in0.0 mm
04:01 AM 41.1°F5.1°C 19.2°F-7.1°C 41% 3.0 mph NE4.8 kmh NE 6.0 mph9.7 kmh 29.79 in1008.8 mb 0.00 in0.0 mm 0.00 in/hr0.0 mm/hr 0.00 in0.0 mm
03:56 AM 41.1°F5.1°C 19.2°F-7.1°C 41% 4.0 mph NNE6.4 kmh NNE 4.0 mph6.4 kmh 29.79 in1008.8 mb 0.00 in0.0 mm 0.00 in/hr0.0 mm/hr 0.00 in0.0 mm
03:51 AM 41.3°F5.2°C 19.4°F-7.0°C 41% 1.0 mph NE1.6 kmh NE 3.0 mph4.8 kmh 29.79 in1008.8 mb 0.00 in0.0 mm 0.00 in/hr0.0 mm/hr 0.00 in0.0 mm
03:46 AM 41.9°F5.5°C 19.4°F-7.0°C 40% 1.0 mph ENE1.6 kmh ENE 2.0 mph3.2 kmh 29.79 in1008.8 mb 0.00 in0.0 mm 0.00 in/hr0.0 mm/hr 0.00 in0.0 mm
03:41 AM 42.2°F5.7°C 19.6°F-6.9°C 40% Calm Calm 7.0 mph11.3 kmh 29.79 in1008.8 mb 0.00 in0.0 mm 0.00 in/hr0.0 mm/hr 0.00 in0.0 mm
03:36 AM 42.3°F5.7°C 19.7°F-6.8°C 40% Calm Calm 7.0 mph11.3 kmh 29.79 in1008.8 mb 0.00 in0.0 mm 0.00 in/hr0.0 mm/hr 0.00 in0.0 mm
03:31 AM 42.3°F5.7°C 19.7°F-6.8°C 40% 4.0 mph NE6.4 kmh NE 7.0 mph11.3 kmh 29.79 in1008.8 mb 0.00 in0.0 mm 0.00 in/hr0.0 mm/hr 0.00 in0.0 mm
03:26 AM 41.9°F5.5°C 19.4°F-7.0°C 40% 3.0 mph NE4.8 kmh NE 4.0 mph6.4 kmh 29.79 in1008.8 mb 0.00 in0.0 mm 0.00 in/hr0.0 mm/hr 0.00 in0.0 mm
03:21 AM 41.9°F5.5°C 19.4°F-7.0°C 40% 1.0 mph SW1.6 kmh SW 2.0 mph3.2 kmh 29.79 in1008.8 mb 0.00 in0.0 mm 0.00 in/hr0.0 mm/hr 0.00 in0.0 mm
03:16 AM 42.2°F5.7°C 19.0°F-7.2°C 39% 1.0 mph SW1.6 kmh SW 3.0 mph4.8 kmh 29.79 in1008.8 mb 0.00 in0.0 mm 0.00 in/hr0.0 mm/hr 0.00 in0.0 mm
03:11 AM 42.6°F5.9°C 19.4°F-7.0°C 39% 2.0 mph SW3.2 kmh SW 2.0 mph3.2 kmh 29.80 in1009.1 mb 0.00 in0.0 mm 0.00 in/hr0.0 mm/hr 0.00 in0.0 mm
03:06 AM 43.2°F6.2°C 19.3°F-7.1°C 38% 2.0 mph SW3.2 kmh SW 2.0 mph3.2 kmh 29.80 in1009.1 mb 0.00 in0.0 mm 0.00 in/hr0.0 mm/hr 0.00 in0.0 mm
03:01 AM 43.6°F6.4°C 19.7°F-6.8°C 38% Calm Calm -- 29.80 in1009.1 mb 0.00 in0.0 mm 0.00 in/hr0.0 mm/hr 0.00 in0.0 mm
02:56 AM 44.2°F6.8°C 19.6°F-6.9°C 37% Calm Calm 1.0 mph1.6 kmh 29.79 in1008.8 mb 0.00 in0.0 mm 0.00 in/hr0.0 mm/hr 0.00 in0.0 mm
02:51 AM 44.9°F7.2°C 20.2°F-6.6°C 37% Calm Calm 3.0 mph4.8 kmh 29.79 in1008.8 mb 0.00 in0.0 mm 0.00 in/hr0.0 mm/hr 0.00 in0.0 mm
02:46 AM 45.4°F7.4°C 19.4°F-7.0°C 35% Calm Calm 1.0 mph1.6 kmh 29.79 in1008.8 mb 0.00 in0.0 mm 0.00 in/hr0.0 mm/hr 0.00 in0.0 mm
02:41 AM 45.4°F7.4°C 18.7°F-7.4°C 34% 2.0 mph W3.2 kmh W 3.0 mph4.8 kmh 29.78 in1008.5 mb 0.00 in0.0 mm 0.00 in/hr0.0 mm/hr 0.00 in0.0 mm
02:36 AM 45.2°F7.3°C 18.5°F-7.5°C 34% 2.0 mph N3.2 kmh N 3.0 mph4.8 kmh 29.78 in1008.5 mb 0.00 in0.0 mm 0.00 in/hr0.0 mm/hr 0.00 in0.0 mm
02:31 AM 44.9°F7.2°C 18.9°F-7.3°C 35% 3.0 mph NNW4.8 kmh NNW 3.0 mph4.8 kmh 29.78 in1008.5 mb 0.00 in0.0 mm 0.00 in/hr0.0 mm/hr 0.00 in0.0 mm
02:26 AM 44.9°F7.2°C 18.9°F-7.3°C 35% 1.0 mph N1.6 kmh N 3.0 mph4.8 kmh 29.78 in1008.5 mb 0.00 in0.0 mm 0.00 in/hr0.0 mm/hr 0.00 in0.0 mm
02:21 AM 44.9°F7.2°C 18.9°F-7.3°C 35% 2.0 mph NW3.2 kmh NW 2.0 mph3.2 kmh 29.78 in1008.5 mb 0.00 in0.0 mm 0.00 in/hr0.0 mm/hr 0.00 in0.0 mm
02:16 AM 45.2°F7.3°C 19.2°F-7.1°C 35% 2.0 mph WNW3.2 kmh WNW 2.0 mph3.2 kmh 29.78 in1008.5 mb 0.00 in0.0 mm 0.00 in/hr0.0 mm/hr 0.00 in0.0 mm
02:11 AM 45.8°F7.7°C 19.0°F-7.2°C 34% 1.0 mph S1.6 kmh S 2.0 mph3.2 kmh 29.79 in1008.8 mb 0.00 in0.0 mm 0.00 in/hr0.0 mm/hr 0.00 in0.0 mm
02:06 AM 46.2°F7.9°C 18.7°F-7.4°C 33% Calm Calm 2.0 mph3.2 kmh 29.79 in1008.8 mb 0.00 in0.0 mm 0.00 in/hr0.0 mm/hr 0.00 in0.0 mm
02:01 AM 46.7°F8.2°C 18.4°F-7.6°C 32% 2.0 mph S3.2 kmh S 2.0 mph3.2 kmh 29.79 in1008.8 mb 0.00 in0.0 mm 0.00 in/hr0.0 mm/hr 0.00 in0.0 mm
01:56 AM 47.1°F8.4°C 18.8°F-7.3°C 32% 1.0 mph S1.6 kmh S 4.0 mph6.4 kmh 29.79 in1008.8 mb 0.00 in0.0 mm 0.00 in/hr0.0 mm/hr 0.00 in0.0 mm
01:51 AM 47.6°F8.7°C 19.2°F-7.1°C 32% 1.0 mph S1.6 kmh S 4.0 mph6.4 kmh 29.79 in1008.8 mb 0.00 in0.0 mm 0.00 in/hr0.0 mm/hr 0.00 in0.0 mm
01:46 AM 47.7°F8.7°C 19.3°F-7.1°C 32% Calm Calm 5.0 mph8.0 kmh 29.79 in1008.8 mb 0.00 in0.0 mm 0.00 in/hr0.0 mm/hr 0.00 in0.0 mm
01:41 AM 47.9°F8.8°C 18.7°F-7.4°C 31% 3.0 mph SSW4.8 kmh SSW 5.0 mph8.0 kmh 29.80 in1009.1 mb 0.00 in0.0 mm 0.00 in/hr0.0 mm/hr 0.00 in0.0 mm
01:36 AM 47.6°F8.7°C 19.2°F-7.1°C 32% 3.0 mph SSW4.8 kmh SSW 5.0 mph8.0 kmh 29.80 in1009.1 mb 0.00 in0.0 mm 0.00 in/hr0.0 mm/hr 0.00 in0.0 mm
01:31 AM 47.0°F8.3°C 19.4°F-7.0°C 33% 3.0 mph S4.8 kmh S 5.0 mph8.0 kmh 29.80 in1009.1 mb 0.00 in0.0 mm 0.00 in/hr0.0 mm/hr 0.00 in0.0 mm
01:26 AM 46.7°F8.2°C 19.1°F-7.2°C 33% Calm Calm 2.0 mph3.2 kmh 29.80 in1009.1 mb 0.00 in0.0 mm 0.00 in/hr0.0 mm/hr 0.00 in0.0 mm
01:21 AM 46.8°F8.2°C 19.2°F-7.1°C 33% 1.0 mph E1.6 kmh E 4.0 mph6.4 kmh 29.80 in1009.1 mb 0.00 in0.0 mm 0.00 in/hr0.0 mm/hr 0.00 in0.0 mm
01:16 AM 46.8°F8.2°C 19.2°F-7.1°C 33% Calm Calm 3.0 mph4.8 kmh 29.80 in1009.1 mb 0.00 in0.0 mm 0.00 in/hr0.0 mm/hr 0.00 in0.0 mm
01:11 AM 47.0°F8.3°C 20.1°F-6.6°C 34% 2.0 mph E3.2 kmh E 3.0 mph4.8 kmh 29.82 in1009.8 mb 0.00 in0.0 mm 0.00 in/hr0.0 mm/hr 0.00 in0.0 mm
01:06 AM 47.1°F8.4°C 20.9°F-6.2°C 35% Calm Calm 4.0 mph6.4 kmh 29.82 in1009.8 mb 0.00 in0.0 mm 0.00 in/hr0.0 mm/hr 0.00 in0.0 mm
01:01 AM 47.7°F8.7°C 20.0°F-6.7°C 33% Calm Calm 4.0 mph6.4 kmh 29.82 in1009.8 mb 0.00 in0.0 mm 0.00 in/hr0.0 mm/hr 0.00 in0.0 mm
12:56 AM 47.7°F8.7°C 20.0°F-6.7°C 33% 1.0 mph NNE1.6 kmh NNE 2.0 mph3.2 kmh 29.82 in1009.8 mb 0.00 in0.0 mm 0.00 in/hr0.0 mm/hr 0.00 in0.0 mm
12:51 AM 47.9°F8.8°C 19.5°F-6.9°C 32% Calm Calm 2.0 mph3.2 kmh 29.82 in1009.8 mb 0.00 in0.0 mm 0.00 in/hr0.0 mm/hr 0.00 in0.0 mm
12:46 AM 48.2°F9.0°C 19.0°F-7.2°C 31% 2.0 mph NNE3.2 kmh NNE 2.0 mph3.2 kmh 29.82 in1009.8 mb 0.00 in0.0 mm 0.00 in/hr0.0 mm/hr 0.00 in0.0 mm
12:41 AM 48.5°F9.2°C 19.3°F-7.1°C 31% Calm Calm 4.0 mph6.4 kmh 29.82 in1009.8 mb 0.00 in0.0 mm 0.00 in/hr0.0 mm/hr 0.00 in0.0 mm
12:36 AM 48.6°F9.2°C 19.3°F-7.1°C 31% 1.0 mph NNE1.6 kmh NNE 4.0 mph6.4 kmh 29.82 in1009.8 mb 0.00 in0.0 mm 0.00 in/hr0.0 mm/hr 0.00 in0.0 mm
12:31 AM 48.8°F9.3°C 20.3°F-6.5°C 32% 3.0 mph NNE4.8 kmh NNE 3.0 mph4.8 kmh 29.82 in1009.8 mb 0.00 in0.0 mm 0.00 in/hr0.0 mm/hr 0.00 in0.0 mm
12:26 AM 49.1°F9.5°C 19.8°F-6.8°C 31% 2.0 mph WNW3.2 kmh WNW 2.0 mph3.2 kmh 29.82 in1009.8 mb 0.00 in0.0 mm 0.00 in/hr0.0 mm/hr 0.00 in0.0 mm
12:21 AM 49.2°F9.6°C 19.1°F-7.2°C 30% Calm Calm 4.0 mph6.4 kmh 29.82 in1009.8 mb 0.00 in0.0 mm 0.00 in/hr0.0 mm/hr 0.00 in0.0 mm
12:16 AM 49.4°F9.7°C 18.5°F-7.5°C 29% 1.0 mph W1.6 kmh W 4.0 mph6.4 kmh 29.82 in1009.8 mb 0.00 in0.0 mm 0.00 in/hr0.0 mm/hr 0.00 in0.0 mm
12:11 AM 49.4°F9.7°C 18.5°F-7.5°C 29% 1.0 mph WSW1.6 kmh WSW 3.0 mph4.8 kmh 29.82 in1009.8 mb 0.00 in0.0 mm 0.00 in/hr0.0 mm/hr 0.00 in0.0 mm
12:06 AM 49.6°F9.8°C 18.7°F-7.4°C 29% 1.0 mph SW1.6 kmh SW 2.0 mph3.2 kmh 29.82 in1009.8 mb 0.00 in0.0 mm 0.00 in/hr0.0 mm/hr 0.00 in0.0 mm
12:01 AM 49.8°F9.9°C 18.8°F-7.3°C 29% Calm Calm 1.0 mph1.6 kmh 29.82 in1009.8 mb 0.00 in0.0 mm 0.00 in/hr0.0 mm/hr 0.00 in0.0 mm